createdAt,value
2022-09-16T00:00:34.839Z,14.65
2022-09-16T00:03:02.170Z,14.81
2022-09-16T00:05:29.003Z,14.50
2022-09-16T00:07:56.108Z,14.68
2022-09-16T00:10:24.002Z,14.43
2022-09-16T00:12:51.258Z,14.56
2022-09-16T00:15:18.206Z,13.95
2022-09-16T00:17:45.028Z,14.55
2022-09-16T00:20:12.089Z,14.34
2022-09-16T00:22:38.848Z,14.07
2022-09-16T00:25:06.295Z,14.36
2022-09-16T00:27:33.224Z,14.61
2022-09-16T00:30:00.188Z,14.28
2022-09-16T00:32:27.050Z,14.49
2022-09-16T00:34:53.915Z,14.67
2022-09-16T00:37:20.808Z,14.40
2022-09-16T00:39:49.312Z,14.68
2022-09-16T00:42:17.538Z,14.14
2022-09-16T00:44:53.283Z,14.54
2022-09-16T00:47:27.984Z,14.47
2022-09-16T00:49:59.461Z,14.34
2022-09-16T00:52:29.078Z,14.23
2022-09-16T00:54:56.041Z,14.43
2022-09-16T00:57:22.974Z,14.10
2022-09-16T00:59:54.901Z,13.93
2022-09-16T01:02:23.683Z,14.23
2022-09-16T01:04:54.013Z,14.00
2022-09-16T01:07:36.655Z,14.19
2022-09-16T01:10:04.158Z,13.60
2022-09-16T01:12:33.585Z,13.24
2022-09-16T01:15:02.547Z,13.33
2022-09-16T01:17:54.084Z,13.43
2022-09-16T01:20:23.757Z,13.29
2022-09-16T01:23:02.390Z,14.34
2022-09-16T01:25:29.210Z,13.36
2022-09-16T01:28:32.861Z,13.67
2022-09-16T01:31:40.923Z,13.96
2022-09-16T01:34:34.979Z,14.03
2022-09-16T01:37:09.439Z,14.08
2022-09-16T01:40:09.549Z,14.32
2022-09-16T01:42:48.251Z,14.49
2022-09-16T01:45:24.000Z,14.46
2022-09-16T01:48:12.537Z,14.82
2022-09-16T01:51:14.353Z,15.24
2022-09-16T01:54:08.600Z,15.65
2022-09-16T01:56:44.583Z,15.62
2022-09-16T01:59:15.208Z,15.86
2022-09-16T02:01:55.166Z,15.61
2022-09-16T02:04:31.606Z,15.60
2022-09-16T02:07:02.396Z,15.65
2022-09-16T02:09:34.978Z,15.98
2022-09-16T02:12:06.585Z,16.04
2022-09-16T02:14:38.976Z,15.74
2022-09-16T02:17:10.204Z,15.61
2022-09-16T02:19:42.268Z,15.39
2022-09-16T02:22:16.112Z,15.27
2022-09-16T02:24:47.613Z,15.19
2022-09-16T02:27:18.703Z,15.06
2022-09-16T02:29:55.552Z,15.82
2022-09-16T02:32:26.016Z,15.68
2022-09-16T02:34:54.659Z,15.45
2022-09-16T02:37:30.983Z,15.51
2022-09-16T02:40:02.427Z,15.80
2022-09-16T02:42:30.332Z,15.54
2022-09-16T02:44:58.399Z,15.73
2022-09-16T02:47:35.628Z,15.27
2022-09-16T02:50:12.346Z,15.39
2022-09-16T02:52:56.842Z,15.41
2022-09-16T02:55:53.896Z,15.11
2022-09-16T02:58:21.067Z,15.30
2022-09-16T03:00:52.264Z,15.51
2022-09-16T03:03:19.332Z,15.16
2022-09-16T03:06:11.901Z,14.98
2022-09-16T03:08:39.879Z,15.03
2022-09-16T03:11:30.626Z,15.04
2022-09-16T03:14:06.568Z,14.54
2022-09-16T03:16:46.269Z,15.12
2022-09-16T03:19:13.009Z,15.56
2022-09-16T03:21:42.719Z,15.61
2022-09-16T03:24:35.641Z,15.30
2022-09-16T03:27:11.745Z,15.59
2022-09-16T03:29:46.980Z,15.24
2022-09-16T03:32:21.069Z,15.28
2022-09-16T03:34:57.275Z,15.68
2022-09-16T03:37:27.542Z,15.79
2022-09-16T03:40:00.274Z,15.72
2022-09-16T03:42:27.161Z,15.42
2022-09-16T03:44:54.016Z,15.01
2022-09-16T03:47:20.945Z,15.06
2022-09-16T03:49:47.756Z,15.16
2022-09-16T03:52:14.661Z,14.80
2022-09-16T03:54:41.898Z,15.13
2022-09-16T03:57:09.730Z,15.13
2022-09-16T03:59:36.498Z,15.11
2022-09-16T04:02:03.298Z,15.13
2022-09-16T04:04:30.087Z,14.30
2022-09-16T04:06:56.861Z,14.12
2022-09-16T04:09:23.633Z,13.95
2022-09-16T04:11:50.383Z,14.39
2022-09-16T04:14:17.338Z,14.71
2022-09-16T04:16:45.321Z,14.46
2022-09-16T04:19:13.481Z,14.94
2022-09-16T04:21:41.663Z,14.49
2022-09-16T04:24:12.873Z,14.98
2022-09-16T04:26:40.722Z,14.66
2022-09-16T04:29:07.749Z,14.78
2022-09-16T04:31:34.840Z,14.63
2022-09-16T04:34:03.021Z,14.45
2022-09-16T04:36:30.201Z,14.73
2022-09-16T04:38:57.101Z,14.29
2022-09-16T04:41:26.395Z,14.32
2022-09-16T04:43:58.077Z,14.15
2022-09-16T04:46:27.223Z,13.95
2022-09-16T04:48:55.563Z,13.79
2022-09-16T04:51:23.403Z,13.82
2022-09-16T04:53:50.559Z,14.23
2022-09-16T04:56:22.038Z,14.35
2022-09-16T04:58:51.522Z,13.99
2022-09-16T05:01:20.378Z,14.32
2022-09-16T05:03:50.014Z,13.96
2022-09-16T05:06:22.481Z,14.09
2022-09-16T05:08:50.354Z,14.27
2022-09-16T05:11:25.693Z,14.62
2022-09-16T05:13:53.030Z,14.25
2022-09-16T05:16:22.678Z,13.98
2022-09-16T05:18:51.021Z,14.75
2022-09-16T05:21:21.122Z,14.40
2022-09-16T05:23:48.206Z,14.19
2022-09-16T05:26:17.780Z,14.47
2022-09-16T05:28:44.935Z,14.41
2022-09-16T05:31:18.891Z,14.16
2022-09-16T05:33:48.070Z,14.31
2022-09-16T05:36:17.325Z,14.35
2022-09-16T05:38:59.154Z,14.58
2022-09-16T05:41:31.462Z,14.83
2022-09-16T05:44:00.459Z,14.95
2022-09-16T05:46:28.623Z,14.79
2022-09-16T05:48:56.558Z,14.80
2022-09-16T05:51:25.502Z,14.96
2022-09-16T05:53:54.002Z,14.64
2022-09-16T05:56:26.379Z,15.08
2022-09-16T05:58:54.602Z,14.93
2022-09-16T06:01:24.393Z,15.16
2022-09-16T06:03:52.198Z,15.00
2022-09-16T06:06:30.535Z,15.39
2022-09-16T06:09:04.324Z,14.78
2022-09-16T06:11:31.517Z,15.44
2022-09-16T06:14:00.189Z,15.43
2022-09-16T06:16:28.999Z,15.18
2022-09-16T06:18:57.207Z,15.72
2022-09-16T06:21:24.999Z,15.72
2022-09-16T06:23:52.107Z,15.58
2022-09-16T06:26:21.463Z,15.34
2022-09-16T06:28:49.072Z,15.49
2022-09-16T06:31:26.731Z,14.60
2022-09-16T06:33:54.772Z,14.99
2022-09-16T06:36:24.011Z,14.84
2022-09-16T06:38:51.247Z,14.89
2022-09-16T06:41:20.279Z,15.11
2022-09-16T06:43:47.920Z,15.32
2022-09-16T06:46:17.878Z,15.08
2022-09-16T06:48:47.149Z,15.49
2022-09-16T06:51:16.690Z,15.76
2022-09-16T06:53:44.462Z,15.82
2022-09-16T06:56:14.581Z,16.03
2022-09-16T06:58:43.661Z,15.97
2022-09-16T07:01:13.301Z,16.30
2022-09-16T07:03:42.899Z,16.46
2022-09-16T07:06:11.575Z,16.27
2022-09-16T07:08:39.085Z,16.16
2022-09-16T07:11:12.581Z,16.71
2022-09-16T07:13:40.531Z,17.07
2022-09-16T07:16:14.032Z,16.68
2022-09-16T07:18:42.096Z,16.54
2022-09-16T07:21:14.436Z,16.17
2022-09-16T07:23:42.333Z,16.26
2022-09-16T07:26:17.554Z,16.24
2022-09-16T07:28:48.603Z,16.08
2022-09-16T07:31:21.312Z,16.36
2022-09-16T07:33:50.258Z,16.41
2022-09-16T07:36:22.916Z,16.36
2022-09-16T07:38:51.282Z,16.81
2022-09-16T07:41:22.332Z,16.85
2022-09-16T07:43:49.283Z,16.62
2022-09-16T07:46:17.962Z,16.50
2022-09-16T07:48:46.389Z,16.84
2022-09-16T07:51:16.399Z,16.68
2022-09-16T07:53:44.044Z,16.65
2022-09-16T07:56:16.918Z,17.07
2022-09-16T07:58:45.441Z,16.79
2022-09-16T08:01:15.235Z,17.31
2022-09-16T08:03:43.648Z,16.97
2022-09-16T08:06:22.478Z,17.11
2022-09-16T08:08:53.150Z,17.17
2022-09-16T08:11:21.096Z,17.22
2022-09-16T08:13:48.662Z,16.90
2022-09-16T08:16:20.730Z,16.77
2022-09-16T08:18:50.100Z,17.09
2022-09-16T08:21:20.280Z,17.42
2022-09-16T08:23:47.820Z,16.80
2022-09-16T08:26:17.397Z,17.35
2022-09-16T08:29:07.287Z,17.42
2022-09-16T08:31:33.265Z,17.28
2022-09-16T08:34:00.262Z,17.59
2022-09-16T08:36:27.403Z,17.33
2022-09-16T08:38:57.790Z,17.99
2022-09-16T08:41:47.763Z,17.57
2022-09-16T08:45:10.033Z,17.64
2022-09-16T08:48:13.201Z,17.46
2022-09-16T08:50:44.522Z,17.77
2022-09-16T08:53:38.623Z,16.99
2022-09-16T08:56:10.799Z,17.37
2022-09-16T08:58:44.885Z,17.30
2022-09-16T09:01:20.462Z,16.91
2022-09-16T09:03:48.981Z,16.45
2022-09-16T09:06:42.222Z,16.96
2022-09-16T09:09:27.817Z,17.25
2022-09-16T09:11:57.815Z,17.22
2022-09-16T09:14:40.182Z,17.59
2022-09-16T09:17:18.753Z,17.68
2022-09-16T09:20:07.125Z,17.42
2022-09-16T09:22:53.566Z,17.95
2022-09-16T09:25:20.294Z,17.83
2022-09-16T09:28:02.427Z,17.76
2022-09-16T09:30:32.003Z,17.36
2022-09-16T09:33:41.404Z,16.11
2022-09-16T09:36:23.211Z,15.14
2022-09-16T09:39:05.933Z,15.00
2022-09-16T09:41:55.012Z,15.31
2022-09-16T09:44:48.245Z,15.38
2022-09-16T09:47:42.424Z,15.09
2022-09-16T09:50:15.869Z,15.51
2022-09-16T09:53:01.574Z,15.36
2022-09-16T09:55:33.829Z,16.03
2022-09-16T09:58:00.902Z,16.41
2022-09-16T10:00:28.395Z,17.01
2022-09-16T10:03:13.013Z,16.40
2022-09-16T10:05:41.322Z,16.68
2022-09-16T10:08:33.045Z,16.46
2022-09-16T10:11:01.988Z,16.69
2022-09-16T10:13:30.570Z,15.78
2022-09-16T10:16:15.741Z,15.61
2022-09-16T10:18:42.679Z,15.34
2022-09-16T10:21:13.252Z,15.77
2022-09-16T10:23:40.334Z,16.06
2022-09-16T10:26:22.731Z,16.61
2022-09-16T10:29:01.929Z,17.27
2022-09-16T10:31:37.748Z,17.52
2022-09-16T10:34:23.746Z,17.14
2022-09-16T10:37:27.830Z,17.85
2022-09-16T10:39:58.620Z,17.77
2022-09-16T10:42:29.118Z,17.72
2022-09-16T10:45:13.712Z,17.71
2022-09-16T10:47:41.203Z,17.79
2022-09-16T10:50:08.750Z,17.44
2022-09-16T10:52:44.703Z,17.23
2022-09-16T10:55:35.279Z,17.15
2022-09-16T10:58:18.175Z,17.79
2022-09-16T11:01:09.463Z,17.76
2022-09-16T11:03:51.452Z,17.85
2022-09-16T11:06:36.425Z,17.84
2022-09-16T11:09:13.686Z,18.32
2022-09-16T11:11:43.401Z,18.37
2022-09-16T11:14:20.708Z,18.38
2022-09-16T11:17:25.396Z,18.14
2022-09-16T11:20:29.894Z,18.27
2022-09-16T11:23:06.665Z,18.81
2022-09-16T11:25:56.951Z,19.09
2022-09-16T11:28:47.994Z,19.13
2022-09-16T11:31:31.101Z,18.42
2022-09-16T11:34:05.680Z,18.26
2022-09-16T11:36:32.786Z,18.89
2022-09-16T11:39:31.719Z,19.15
2022-09-16T11:42:24.535Z,18.59
2022-09-16T11:45:07.998Z,18.52
2022-09-16T11:47:46.881Z,18.13
2022-09-16T11:50:28.833Z,18.73
2022-09-16T11:53:11.936Z,17.98
2022-09-16T11:55:54.612Z,18.51
2022-09-16T11:58:43.159Z,18.41
2022-09-16T12:04:38.781Z,18.01
2022-09-16T12:10:06.727Z,18.08
2022-09-16T12:12:38.952Z,18.50
2022-09-16T12:15:14.767Z,17.91
2022-09-16T12:17:50.939Z,17.85
2022-09-16T12:20:33.325Z,18.08
2022-09-16T12:23:17.250Z,18.32
2022-09-16T12:25:52.933Z,18.24
2022-09-16T12:28:55.219Z,17.93
2022-09-16T12:31:33.653Z,17.43
2022-09-16T12:34:24.119Z,17.64
2022-09-16T12:37:00.485Z,17.66
2022-09-16T12:39:28.725Z,17.81
2022-09-16T12:42:10.725Z,17.42
2022-09-16T12:44:49.350Z,17.86
2022-09-16T12:47:42.332Z,18.21
2022-09-16T12:50:47.058Z,17.97
2022-09-16T12:53:39.472Z,17.69
2022-09-16T12:56:24.224Z,17.13
2022-09-16T12:59:03.818Z,16.87
2022-09-16T13:01:48.473Z,17.12
2022-09-16T13:04:32.638Z,17.00
2022-09-16T13:07:01.364Z,16.89
2022-09-16T13:09:36.314Z,16.97
2022-09-16T13:15:00.108Z,17.42
2022-09-16T13:17:28.117Z,16.86
2022-09-16T13:19:56.995Z,16.54
2022-09-16T13:22:41.378Z,16.52
2022-09-16T13:25:27.889Z,16.72
2022-09-16T13:28:25.366Z,16.28
2022-09-16T13:30:53.050Z,16.53
2022-09-16T13:33:28.854Z,15.97
2022-09-16T13:36:16.630Z,15.84
2022-09-16T13:38:52.335Z,15.37
2022-09-16T13:41:33.254Z,15.57
2022-09-16T13:44:00.715Z,15.68
2022-09-16T13:46:36.927Z,15.10
2022-09-16T13:49:27.998Z,15.65
2022-09-16T13:51:55.075Z,15.55
2022-09-16T13:54:24.922Z,16.28
2022-09-16T13:57:13.286Z,16.21
2022-09-16T14:00:02.455Z,16.21
2022-09-16T14:03:01.153Z,16.11
2022-09-16T14:05:49.831Z,16.04
2022-09-16T14:08:22.700Z,15.75
2022-09-16T14:11:13.277Z,15.90
2022-09-16T14:14:04.626Z,16.04
2022-09-16T14:16:34.514Z,16.06
2022-09-16T14:19:24.769Z,15.48
2022-09-16T14:22:23.089Z,15.65
2022-09-16T14:24:56.552Z,15.84
2022-09-16T14:27:39.803Z,16.04
2022-09-16T14:30:14.929Z,16.02
2022-09-16T14:32:42.439Z,16.08
2022-09-16T14:35:12.408Z,16.31
2022-09-16T14:37:40.093Z,16.08
2022-09-16T14:40:14.487Z,15.99
2022-09-16T14:42:55.003Z,16.07
2022-09-16T14:45:22.298Z,16.20
2022-09-16T14:47:52.783Z,16.29
2022-09-16T14:50:42.681Z,16.68
2022-09-16T14:53:26.918Z,16.54
2022-09-16T14:56:00.714Z,14.70
2022-09-16T14:58:31.020Z,14.61
2022-09-16T15:01:18.449Z,14.57
2022-09-16T15:03:57.374Z,14.08
2022-09-16T15:06:29.172Z,14.50
2022-09-16T15:09:01.223Z,14.93
2022-09-16T15:11:47.564Z,14.91
2022-09-16T15:14:16.240Z,15.28
2022-09-16T15:16:50.225Z,15.10
2022-09-16T15:19:21.925Z,14.63
2022-09-16T15:21:49.136Z,14.89
2022-09-16T15:24:21.056Z,15.11
2022-09-16T15:26:48.458Z,14.98
2022-09-16T15:29:18.198Z,14.76
2022-09-16T15:31:46.016Z,14.55
2022-09-16T15:34:18.940Z,14.92
2022-09-16T15:36:48.014Z,15.07
2022-09-16T15:39:28.418Z,14.76
2022-09-16T15:42:30.694Z,15.13
2022-09-16T15:45:01.331Z,14.77
2022-09-16T15:47:34.601Z,14.88
2022-09-16T15:50:13.207Z,14.96
2022-09-16T15:53:04.839Z,14.64
2022-09-16T15:55:40.579Z,15.18
2022-09-16T15:58:21.101Z,15.29
2022-09-16T16:00:57.428Z,15.19
2022-09-16T16:03:24.514Z,15.18
2022-09-16T16:05:53.226Z,14.66
2022-09-16T16:08:41.980Z,15.35
2022-09-16T16:11:16.171Z,15.25
2022-09-16T16:13:43.970Z,15.82
2022-09-16T16:16:13.029Z,16.09
2022-09-16T16:18:42.230Z,15.90
2022-09-16T16:21:11.415Z,15.18
2022-09-16T16:23:38.821Z,15.46
2022-09-16T16:26:07.763Z,15.32
2022-09-16T16:28:35.954Z,15.64
2022-09-16T16:31:08.987Z,15.32
2022-09-16T16:33:35.834Z,15.64
2022-09-16T16:36:03.892Z,15.54
2022-09-16T16:38:30.796Z,15.05
2022-09-16T16:40:57.666Z,15.73
2022-09-16T16:43:24.440Z,15.57
2022-09-16T16:45:56.647Z,16.01
2022-09-16T16:48:24.665Z,16.05
2022-09-16T16:51:03.632Z,15.11
2022-09-16T16:53:32.035Z,14.83
2022-09-16T16:56:10.266Z,15.26
2022-09-16T16:58:41.353Z,15.08
2022-09-16T17:01:16.475Z,15.56
2022-09-16T17:03:47.641Z,14.96
2022-09-16T17:06:15.062Z,15.38
2022-09-16T17:08:42.140Z,15.42
2022-09-16T17:11:18.089Z,15.13
2022-09-16T17:13:48.605Z,15.18
2022-09-16T17:16:20.518Z,15.90
2022-09-16T17:18:48.374Z,15.46
2022-09-16T17:21:18.494Z,15.54
2022-09-16T17:23:45.543Z,15.64
2022-09-16T17:26:13.940Z,15.28
2022-09-16T17:28:45.627Z,15.81
2022-09-16T17:31:17.407Z,15.51
2022-09-16T17:33:44.897Z,15.30
2022-09-16T17:36:13.471Z,15.81
2022-09-16T17:38:40.344Z,15.82
2022-09-16T17:41:17.095Z,15.59
2022-09-16T17:43:44.198Z,16.06
2022-09-16T17:46:17.182Z,15.50
2022-09-16T17:48:44.196Z,15.25
2022-09-16T17:51:11.535Z,15.02
2022-09-16T17:53:38.595Z,15.51
2022-09-16T17:56:09.785Z,15.44
2022-09-16T17:58:38.368Z,15.17
2022-09-16T18:01:14.164Z,15.42
2022-09-16T18:03:43.222Z,15.72
2022-09-16T18:06:18.722Z,15.96
2022-09-16T18:08:46.302Z,16.66
2022-09-16T18:11:14.733Z,15.72
2022-09-16T18:13:42.189Z,16.04
2022-09-16T18:16:20.145Z,16.24
2022-09-16T18:18:51.206Z,16.08
2022-09-16T18:21:19.740Z,15.82
2022-09-16T18:23:50.956Z,15.57
2022-09-16T18:26:18.835Z,15.68
2022-09-16T18:29:09.175Z,15.49
2022-09-16T18:31:36.068Z,15.86
2022-09-16T18:34:02.962Z,15.94
2022-09-16T18:36:30.499Z,15.78
2022-09-16T18:38:58.102Z,15.61
2022-09-16T18:41:31.059Z,15.74
2022-09-16T18:44:00.374Z,15.25
2022-09-16T18:46:36.396Z,15.05
2022-09-16T18:49:04.211Z,15.64
2022-09-16T18:51:33.910Z,15.36
2022-09-16T18:54:02.879Z,15.04
2022-09-16T18:56:32.417Z,15.01
2022-09-16T18:59:21.040Z,14.56
2022-09-16T19:01:52.219Z,15.02
2022-09-16T19:04:24.501Z,15.34
2022-09-16T19:06:54.544Z,15.55
2022-09-16T19:09:23.793Z,15.32
2022-09-16T19:11:52.953Z,15.47
2022-09-16T19:14:22.499Z,15.19
2022-09-16T19:16:50.126Z,15.29
2022-09-16T19:19:16.957Z,15.66
2022-09-16T19:21:44.210Z,15.42
2022-09-16T19:24:16.914Z,16.20
2022-09-16T19:26:44.918Z,16.17
2022-09-16T19:29:13.444Z,16.58
2022-09-16T19:31:41.989Z,16.03
2022-09-16T19:34:09.611Z,16.06
2022-09-16T19:36:37.401Z,15.79
2022-09-16T19:39:06.272Z,16.14
2022-09-16T19:41:35.498Z,15.82
2022-09-16T19:44:05.570Z,16.05
2022-09-16T19:46:37.378Z,15.55
2022-09-16T19:49:05.635Z,15.60
2022-09-16T19:51:33.190Z,15.60
2022-09-16T19:54:01.246Z,15.75
2022-09-16T19:56:31.817Z,15.82
2022-09-16T19:59:00.309Z,15.49
2022-09-16T20:01:37.327Z,15.65
2022-09-16T20:04:07.055Z,15.91
2022-09-16T20:06:41.440Z,15.94
2022-09-16T20:09:13.506Z,16.54
2022-09-16T20:11:42.866Z,15.86
2022-09-16T20:14:19.193Z,15.63
2022-09-16T20:16:47.001Z,15.91
2022-09-16T20:19:15.691Z,15.90
2022-09-16T20:21:42.957Z,16.09
2022-09-16T20:24:15.293Z,16.02
2022-09-16T20:26:42.160Z,15.90
2022-09-16T20:29:08.976Z,15.83
2022-09-16T20:31:36.942Z,16.29
2022-09-16T20:34:04.642Z,16.14
2022-09-16T20:36:35.738Z,16.14
2022-09-16T20:39:03.614Z,15.86
2022-09-16T20:41:32.482Z,15.85
2022-09-16T20:43:59.624Z,15.84
2022-09-16T20:46:29.535Z,15.91
2022-09-16T20:48:59.018Z,15.86
2022-09-16T20:51:28.086Z,15.99
2022-09-16T20:54:04.932Z,16.43
2022-09-16T20:56:38.329Z,16.49
2022-09-16T20:59:07.667Z,16.10
2022-09-16T21:01:35.749Z,16.03
2022-09-16T21:04:05.570Z,15.96
2022-09-16T21:06:34.721Z,16.41
2022-09-16T21:09:05.440Z,15.97
2022-09-16T21:11:33.234Z,15.77
2022-09-16T21:14:02.240Z,16.35
2022-09-16T21:16:31.922Z,15.84
2022-09-16T21:19:00.960Z,16.12
2022-09-16T21:21:29.234Z,16.04
2022-09-16T21:23:58.534Z,15.72
2022-09-16T21:26:31.065Z,16.15
2022-09-16T21:28:59.249Z,16.19
2022-09-16T21:31:28.971Z,16.26
2022-09-16T21:33:56.840Z,16.06
2022-09-16T21:36:25.294Z,15.85
2022-09-16T21:38:52.314Z,15.70
2022-09-16T21:41:24.012Z,16.09
2022-09-16T21:43:55.903Z,15.66
2022-09-16T21:46:31.804Z,15.76
2022-09-16T21:49:02.111Z,15.86
2022-09-16T21:51:35.374Z,15.76
2022-09-16T21:54:08.015Z,16.01
2022-09-16T21:56:38.552Z,16.06
2022-09-16T21:59:06.359Z,15.85
2022-09-16T22:01:33.924Z,15.76
2022-09-16T22:04:04.131Z,16.26
2022-09-16T22:06:31.862Z,16.11
2022-09-16T22:09:01.431Z,16.24
2022-09-16T22:11:31.489Z,15.70
2022-09-16T22:14:02.491Z,16.02
2022-09-16T22:16:33.032Z,15.92
2022-09-16T22:19:11.441Z,15.69
2022-09-16T22:21:41.294Z,14.30
2022-09-16T22:24:09.018Z,15.30
2022-09-16T22:26:36.553Z,15.31
2022-09-16T22:29:04.175Z,15.52
2022-09-16T22:31:32.738Z,15.55
2022-09-16T22:34:01.482Z,14.99
2022-09-16T22:36:32.101Z,15.55
2022-09-16T22:39:05.389Z,15.44
2022-09-16T22:41:33.556Z,15.38
2022-09-16T22:44:00.875Z,15.39
2022-09-16T22:46:30.937Z,15.70
2022-09-16T22:48:59.494Z,15.26
2022-09-16T22:51:27.225Z,15.14
2022-09-16T22:53:54.700Z,15.33
2022-09-16T22:56:28.466Z,15.36
2022-09-16T22:58:56.784Z,15.22
2022-09-16T23:01:29.603Z,15.21
2022-09-16T23:03:58.290Z,15.32
2022-09-16T23:06:27.013Z,15.26
2022-09-16T23:08:53.976Z,15.16
2022-09-16T23:11:23.768Z,15.24
2022-09-16T23:13:52.752Z,15.41
2022-09-16T23:16:30.597Z,15.51
2022-09-16T23:18:59.775Z,15.71
2022-09-16T23:21:27.788Z,15.57
2022-09-16T23:23:56.399Z,15.29
2022-09-16T23:26:26.472Z,15.36
2022-09-16T23:28:56.071Z,15.64
2022-09-16T23:31:26.514Z,15.54
2022-09-16T23:33:54.382Z,15.73
2022-09-16T23:36:22.095Z,15.23
2022-09-16T23:38:48.884Z,15.39
2022-09-16T23:41:21.403Z,15.19
2022-09-16T23:43:49.914Z,14.90
2022-09-16T23:46:19.437Z,14.81
2022-09-16T23:48:47.446Z,14.76
2022-09-16T23:51:14.442Z,14.65
2022-09-16T23:53:45.080Z,14.91
2022-09-16T23:56:15.369Z,14.68
2022-09-16T23:58:42.897Z,14.77
